createdAt,value
2018-03-06T00:00:48.157Z,12.67
2018-03-06T00:03:17.554Z,14.90
2018-03-06T00:05:45.689Z,14.90
2018-03-06T00:08:13.964Z,13.93
2018-03-06T00:10:42.099Z,13.97
2018-03-06T00:13:11.025Z,13.57
2018-03-06T00:15:39.159Z,13.70
2018-03-06T00:18:08.096Z,13.20
2018-03-06T00:20:36.236Z,14.00
2018-03-06T00:23:05.156Z,13.17
2018-03-06T00:25:33.311Z,12.90
2018-03-06T00:28:01.473Z,14.70
2018-03-06T00:30:30.373Z,14.20
2018-03-06T00:32:59.294Z,15.07
2018-03-06T00:35:27.428Z,13.20
2018-03-06T00:37:56.364Z,13.60
2018-03-06T00:40:24.486Z,13.80
2018-03-06T00:42:52.645Z,13.43
2018-03-06T00:45:21.652Z,14.70
2018-03-06T00:47:50.560Z,14.83
2018-03-06T00:50:19.758Z,14.83
2018-03-06T00:52:47.919Z,14.27
2018-03-06T00:55:16.822Z,14.37
2018-03-06T00:57:45.713Z,15.40
2018-03-06T01:00:14.640Z,13.70
2018-03-06T01:02:42.785Z,14.30
2018-03-06T01:05:10.984Z,13.50
2018-03-06T01:07:39.122Z,15.30
2018-03-06T01:10:08.043Z,14.93
2018-03-06T01:12:36.177Z,13.37
2018-03-06T01:15:05.101Z,14.07
2018-03-06T01:17:33.235Z,14.40
2018-03-06T01:20:01.375Z,14.63
2018-03-06T01:22:29.508Z,14.60
2018-03-06T01:25:00.261Z,14.43
2018-03-06T01:27:28.400Z,14.80
2018-03-06T01:29:57.312Z,14.07
2018-03-06T01:32:26.901Z,15.67
2018-03-06T01:34:55.811Z,14.77
2018-03-06T01:37:23.952Z,15.20
2018-03-06T01:39:52.108Z,14.30
2018-03-06T01:42:20.249Z,14.83
2018-03-06T01:44:48.427Z,12.47
2018-03-06T01:47:16.566Z,13.53
2018-03-06T01:49:44.728Z,13.63
2018-03-06T01:52:13.636Z,15.00
2018-03-06T01:54:41.802Z,13.10
2018-03-06T01:57:09.953Z,14.30
2018-03-06T01:59:38.104Z,15.00
2018-03-06T02:02:06.229Z,15.67
2018-03-06T02:04:35.147Z,14.63
2018-03-06T02:07:03.295Z,14.57
2018-03-06T02:09:31.433Z,15.17
2018-03-06T02:11:59.608Z,15.30
2018-03-06T02:14:27.747Z,15.87
2018-03-06T02:16:57.360Z,16.40
2018-03-06T02:19:25.509Z,15.33
2018-03-06T02:21:53.652Z,16.27
2018-03-06T02:24:22.557Z,15.70
2018-03-06T02:26:51.481Z,14.80
2018-03-06T02:29:19.649Z,17.70
2018-03-06T02:31:47.816Z,16.70
2018-03-06T02:34:15.924Z,14.97
2018-03-06T02:36:44.757Z,16.20
2018-03-06T02:39:13.666Z,16.97
2018-03-06T02:41:41.812Z,16.37
2018-03-06T02:44:10.703Z,16.20
2018-03-06T02:46:39.736Z,16.40
2018-03-06T02:49:08.306Z,15.27
2018-03-06T02:51:36.474Z,16.07
2018-03-06T02:54:04.607Z,14.90
2018-03-06T02:56:32.744Z,16.07
2018-03-06T02:59:00.885Z,16.77
2018-03-06T03:01:29.802Z,15.87
2018-03-06T03:03:57.935Z,15.70
2018-03-06T03:06:26.864Z,15.43
2018-03-06T03:08:54.987Z,16.53
2018-03-06T03:11:23.124Z,18.07
2018-03-06T03:13:51.274Z,16.70
2018-03-06T03:16:19.434Z,16.63
2018-03-06T03:18:48.337Z,15.43
2018-03-06T03:21:16.552Z,15.67
2018-03-06T03:23:45.881Z,16.43
2018-03-06T03:26:14.035Z,17.17
2018-03-06T03:28:42.177Z,16.60
2018-03-06T03:31:10.691Z,16.37
2018-03-06T03:33:38.825Z,16.17
2018-03-06T03:36:06.962Z,17.40
2018-03-06T03:38:35.910Z,16.90
2018-03-06T03:41:04.047Z,17.27
2018-03-06T03:43:32.308Z,17.97
2018-03-06T03:46:01.220Z,18.20
2018-03-06T03:48:29.388Z,15.90
2018-03-06T03:50:58.288Z,16.03
2018-03-06T03:53:26.452Z,17.67
2018-03-06T03:55:54.583Z,17.20
2018-03-06T03:58:23.177Z,16.93
2018-03-06T04:00:51.331Z,16.87
2018-03-06T04:03:19.483Z,16.07
2018-03-06T04:05:47.611Z,15.30
2018-03-06T04:08:16.347Z,16.80
2018-03-06T04:10:44.486Z,16.60
2018-03-06T04:13:13.428Z,16.30
2018-03-06T04:15:41.560Z,16.43
2018-03-06T04:18:09.719Z,17.10
2018-03-06T04:20:38.620Z,17.77
2018-03-06T04:23:07.965Z,15.60
2018-03-06T04:25:36.126Z,17.30
2018-03-06T04:28:04.812Z,15.57
2018-03-06T04:30:34.521Z,17.53
2018-03-06T04:33:02.684Z,17.93
2018-03-06T04:35:30.816Z,18.97
2018-03-06T04:38:00.194Z,16.77
2018-03-06T04:40:28.337Z,18.27
2018-03-06T04:42:56.504Z,17.23
2018-03-06T04:45:24.651Z,19.03
2018-03-06T04:47:53.592Z,17.70
2018-03-06T04:50:21.722Z,17.20
2018-03-06T04:52:51.846Z,17.67
2018-03-06T04:55:21.478Z,18.70
2018-03-06T04:57:49.649Z,17.63
2018-03-06T05:00:17.805Z,19.80
2018-03-06T05:02:46.733Z,19.83
2018-03-06T05:05:14.885Z,17.97
2018-03-06T05:07:43.076Z,19.77
2018-03-06T05:10:11.218Z,18.60
2018-03-06T05:12:39.419Z,19.10
2018-03-06T05:15:07.919Z,18.10
2018-03-06T05:17:36.332Z,17.83
2018-03-06T05:20:04.543Z,18.63
2018-03-06T05:22:32.699Z,18.80
2018-03-06T05:25:01.926Z,19.40
2018-03-06T05:27:30.813Z,20.30
2018-03-06T05:29:58.976Z,20.50
2018-03-06T05:32:27.112Z,21.03
2018-03-06T05:34:55.713Z,18.87
2018-03-06T05:37:24.631Z,17.13
2018-03-06T05:39:52.800Z,17.40
2018-03-06T05:42:22.272Z,18.23
2018-03-06T05:44:52.400Z,17.73
2018-03-06T05:47:20.980Z,17.27
2018-03-06T05:49:49.151Z,17.43
2018-03-06T05:52:17.275Z,19.33
2018-03-06T05:54:45.460Z,18.00
2018-03-06T05:57:14.367Z,18.97
2018-03-06T05:59:42.536Z,18.90
2018-03-06T06:02:11.133Z,19.10
2018-03-06T06:04:39.300Z,16.87
2018-03-06T06:07:07.913Z,18.93
2018-03-06T06:09:36.840Z,17.87
2018-03-06T06:12:05.812Z,26.90
2018-03-06T06:14:33.971Z,20.10
2018-03-06T06:17:02.104Z,18.40
2018-03-06T06:19:31.545Z,17.27
2018-03-06T06:21:59.669Z,18.30
2018-03-06T06:24:29.205Z,19.03
2018-03-06T06:26:57.314Z,19.07
2018-03-06T06:29:26.223Z,17.83
2018-03-06T06:31:54.351Z,18.37
2018-03-06T06:34:22.495Z,19.70
2018-03-06T06:36:50.608Z,20.67
2018-03-06T06:39:18.773Z,19.30
2018-03-06T06:41:46.899Z,19.50
2018-03-06T06:44:14.995Z,20.73
2018-03-06T06:46:43.572Z,18.83
2018-03-06T06:49:11.706Z,20.03
2018-03-06T06:51:40.621Z,19.77
2018-03-06T06:54:08.832Z,18.47
2018-03-06T06:56:36.964Z,18.83
2018-03-06T06:59:06.248Z,18.63
2018-03-06T07:01:35.513Z,17.87
2018-03-06T07:04:03.634Z,19.90
2018-03-06T07:06:31.764Z,18.60
2018-03-06T07:09:01.051Z,19.07
2018-03-06T07:11:29.981Z,18.50
2018-03-06T07:13:58.862Z,19.40
2018-03-06T07:16:28.015Z,17.17
2018-03-06T07:18:56.138Z,19.40
2018-03-06T07:21:25.046Z,18.27
2018-03-06T07:23:53.155Z,17.70
2018-03-06T07:26:21.300Z,18.60
2018-03-06T07:28:49.420Z,19.27
2018-03-06T07:31:18.601Z,19.10
2018-03-06T07:33:46.721Z,19.60
2018-03-06T07:36:16.397Z,17.70
2018-03-06T07:38:44.533Z,20.40
2018-03-06T07:41:12.776Z,19.40
2018-03-06T07:43:41.651Z,19.30
2018-03-06T07:46:12.609Z,19.30
2018-03-06T07:48:41.494Z,19.30
2018-03-06T07:51:10.463Z,19.40
2018-03-06T07:53:38.547Z,20.53
2018-03-06T07:56:06.806Z,19.43
2018-03-06T07:58:34.950Z,19.40
2018-03-06T08:01:03.474Z,20.30
2018-03-06T08:03:31.602Z,20.10
2018-03-06T08:05:59.757Z,20.33
2018-03-06T08:08:27.881Z,20.87
2018-03-06T08:10:56.496Z,21.40
2018-03-06T08:13:24.631Z,20.67
2018-03-06T08:15:54.604Z,20.10
2018-03-06T08:18:22.731Z,19.57
2018-03-06T08:20:51.839Z,21.27
2018-03-06T08:23:20.975Z,19.33
2018-03-06T08:25:49.456Z,19.53
2018-03-06T08:28:17.588Z,21.00
2018-03-06T08:30:45.735Z,20.23
2018-03-06T08:33:13.847Z,20.80
2018-03-06T08:35:42.770Z,21.23
2018-03-06T08:38:10.900Z,21.67
2018-03-06T08:40:39.481Z,22.03
2018-03-06T08:43:07.626Z,21.03
2018-03-06T08:45:36.220Z,22.50
2018-03-06T08:48:04.388Z,22.10
2018-03-06T08:50:32.534Z,24.87
2018-03-06T08:53:00.658Z,24.20
2018-03-06T08:55:29.598Z,24.37
2018-03-06T08:57:58.189Z,23.67
2018-03-06T09:00:26.338Z,23.30
2018-03-06T09:02:55.234Z,23.23
2018-03-06T09:05:23.394Z,23.40
2018-03-06T09:07:52.294Z,25.20
2018-03-06T09:10:21.204Z,23.23
2018-03-06T09:12:49.334Z,23.70
2018-03-06T09:15:17.481Z,25.67
2018-03-06T09:17:45.605Z,24.80
2018-03-06T09:20:14.521Z,27.83
2018-03-06T09:22:42.653Z,26.40
2018-03-06T09:25:11.571Z,25.30
2018-03-06T09:27:39.714Z,26.97
2018-03-06T09:30:07.832Z,25.50
2018-03-06T09:32:37.112Z,26.83
2018-03-06T09:35:05.234Z,29.97
2018-03-06T09:37:33.390Z,33.47
2018-03-06T09:40:01.517Z,30.70
2018-03-06T09:42:30.437Z,39.13
2018-03-06T09:44:58.561Z,29.57
2018-03-06T09:47:26.717Z,31.53
2018-03-06T09:49:54.862Z,32.27
2018-03-06T09:52:23.022Z,29.83
2018-03-06T09:54:51.146Z,29.67
2018-03-06T09:57:19.299Z,31.00
2018-03-06T09:59:47.425Z,32.10
2018-03-06T10:02:15.905Z,31.90
2018-03-06T10:04:44.794Z,34.00
2018-03-06T10:07:13.754Z,32.33
2018-03-06T10:09:42.373Z,32.23
2018-03-06T10:12:11.326Z,29.33
2018-03-06T10:14:39.486Z,31.30
2018-03-06T10:17:07.677Z,31.63
2018-03-06T10:19:35.838Z,33.20
2018-03-06T10:22:05.301Z,32.87
2018-03-06T10:24:34.225Z,34.70
2018-03-06T10:27:02.418Z,33.63
2018-03-06T10:29:30.578Z,33.83
2018-03-06T10:31:58.770Z,32.50
2018-03-06T10:34:26.926Z,33.63
2018-03-06T10:36:55.119Z,32.93
2018-03-06T10:39:23.284Z,32.60
2018-03-06T10:41:51.466Z,32.90
2018-03-06T10:44:19.627Z,32.53
2018-03-06T10:46:47.815Z,32.50
2018-03-06T10:49:16.030Z,35.00
2018-03-06T10:51:44.982Z,32.80
2018-03-06T10:54:13.142Z,34.93
2018-03-06T10:56:41.337Z,38.40
2018-03-06T10:59:09.500Z,39.10
2018-03-06T11:01:37.687Z,35.60
2018-03-06T11:04:05.846Z,32.87
2018-03-06T11:06:34.001Z,31.23
2018-03-06T11:09:02.132Z,34.53
2018-03-06T11:11:30.277Z,33.73
2018-03-06T11:13:59.204Z,31.37
2018-03-06T11:16:28.130Z,31.40
2018-03-06T11:18:56.259Z,32.27
2018-03-06T11:21:24.850Z,31.90
2018-03-06T11:23:53.440Z,31.33
2018-03-06T11:26:22.349Z,32.03
2018-03-06T11:28:50.486Z,30.87
2018-03-06T11:31:19.135Z,28.37
2018-03-06T11:33:47.253Z,30.30
2018-03-06T11:36:16.161Z,28.57
2018-03-06T11:38:44.277Z,27.53
2018-03-06T11:41:12.441Z,27.80
2018-03-06T11:43:40.569Z,27.17
2018-03-06T11:46:09.481Z,26.23
2018-03-06T11:48:37.610Z,27.70
2018-03-06T11:51:05.756Z,24.80
2018-03-06T11:53:33.876Z,26.90
2018-03-06T11:56:02.815Z,25.80
2018-03-06T11:58:31.708Z,26.10
2018-03-06T12:00:59.832Z,26.37
2018-03-06T12:03:28.741Z,24.50
2018-03-06T12:05:56.912Z,25.37
2018-03-06T12:08:25.056Z,25.33
2018-03-06T12:10:53.189Z,26.50
2018-03-06T12:13:21.332Z,27.23
2018-03-06T12:15:49.454Z,26.60
2018-03-06T12:18:17.597Z,27.57
2018-03-06T12:20:46.424Z,25.83
2018-03-06T12:23:14.577Z,26.80
2018-03-06T12:25:42.705Z,26.27
2018-03-06T12:28:11.624Z,28.53
2018-03-06T12:30:39.753Z,27.00
2018-03-06T12:33:07.898Z,28.50
2018-03-06T12:35:36.021Z,27.63
2018-03-06T12:38:04.180Z,30.10
2018-03-06T12:40:33.089Z,27.90
2018-03-06T12:43:01.243Z,29.70
2018-03-06T12:45:30.134Z,31.37
2018-03-06T12:47:59.052Z,30.83
2018-03-06T12:50:27.185Z,29.73
2018-03-06T12:52:55.337Z,28.53
2018-03-06T12:55:23.462Z,30.90
2018-03-06T12:57:51.618Z,30.43
2018-03-06T13:00:20.513Z,30.03
2018-03-06T13:02:49.445Z,29.70
2018-03-06T13:05:17.592Z,29.03
2018-03-06T13:07:45.736Z,29.33
2018-03-06T13:10:13.861Z,29.47
2018-03-06T13:12:42.014Z,30.83
2018-03-06T13:15:10.141Z,32.47
2018-03-06T13:17:39.125Z,34.80
2018-03-06T13:20:07.249Z,33.80
2018-03-06T13:22:36.158Z,33.20
2018-03-06T13:25:04.282Z,34.07
2018-03-06T13:27:32.440Z,37.17
2018-03-06T13:30:00.695Z,38.73
2018-03-06T13:32:28.896Z,37.60
2018-03-06T13:34:57.153Z,38.03
2018-03-06T13:37:26.132Z,40.07
2018-03-06T13:39:54.518Z,40.43
2018-03-06T13:42:22.880Z,40.37
2018-03-06T13:44:51.722Z,44.20
2018-03-06T13:47:19.874Z,40.00
2018-03-06T13:49:47.996Z,39.27
2018-03-06T13:52:16.961Z,41.83
2018-03-06T13:54:45.054Z,44.60
2018-03-06T13:57:14.000Z,43.87
2018-03-06T13:59:42.177Z,42.47
2018-03-06T14:02:10.309Z,45.23
2018-03-06T14:04:38.437Z,47.13
2018-03-06T14:07:06.602Z,49.57
2018-03-06T14:09:34.734Z,48.00
2018-03-06T14:12:02.906Z,49.30
2018-03-06T14:14:31.037Z,48.20
2018-03-06T14:16:59.195Z,46.37
2018-03-06T14:19:28.085Z,44.63
2018-03-06T14:21:56.229Z,40.63
2018-03-06T14:24:24.379Z,45.83
2018-03-06T14:26:52.505Z,45.70
2018-03-06T14:29:20.665Z,49.97
2018-03-06T14:31:49.657Z,46.90
2018-03-06T14:34:17.813Z,48.20
2018-03-06T14:36:45.950Z,51.60
2018-03-06T14:39:14.874Z,50.40
2018-03-06T14:41:43.001Z,52.53
2018-03-06T14:44:11.168Z,50.77
2018-03-06T14:46:39.293Z,50.63
2018-03-06T14:49:07.442Z,54.30
2018-03-06T14:51:36.333Z,52.63
2018-03-06T14:54:05.249Z,50.03
2018-03-06T14:56:33.368Z,50.53
2018-03-06T14:59:01.574Z,51.07
2018-03-06T15:01:30.556Z,51.87
2018-03-06T15:03:58.707Z,53.63
2018-03-06T15:06:26.837Z,49.77
2018-03-06T15:08:54.981Z,52.20
2018-03-06T15:11:23.870Z,50.40
2018-03-06T15:13:53.081Z,52.30
2018-03-06T15:16:21.981Z,51.87
2018-03-06T15:18:50.130Z,51.17
2018-03-06T15:21:18.263Z,48.77
2018-03-06T15:23:47.850Z,51.20
2018-03-06T15:26:15.976Z,49.40
2018-03-06T15:28:44.347Z,52.63
2018-03-06T15:31:12.558Z,52.87
2018-03-06T15:33:42.149Z,51.77
2018-03-06T15:36:13.358Z,51.23
2018-03-06T15:38:42.106Z,51.67
2018-03-06T15:41:13.845Z,50.77
2018-03-06T15:43:43.833Z,50.33
2018-03-06T15:46:13.744Z,53.23
2018-03-06T15:48:42.770Z,49.80
2018-03-06T15:51:12.361Z,53.80
2018-03-06T15:53:41.304Z,50.47
2018-03-06T15:56:09.425Z,52.00
2018-03-06T15:58:38.733Z,53.90
2018-03-06T16:01:07.321Z,51.73
2018-03-06T16:03:35.943Z,52.00
2018-03-06T16:06:04.266Z,51.67
2018-03-06T16:08:32.429Z,52.67
2018-03-06T16:11:00.562Z,52.13
2018-03-06T16:13:28.706Z,52.33
2018-03-06T16:15:57.611Z,50.17
2018-03-06T16:18:26.523Z,48.43
2018-03-06T16:20:54.705Z,50.97
2018-03-06T16:23:22.869Z,52.27
2018-03-06T16:25:50.989Z,51.70
2018-03-06T16:28:19.557Z,51.13
2018-03-06T16:30:47.674Z,51.50
2018-03-06T16:33:16.619Z,54.30
2018-03-06T16:35:44.745Z,56.23
2018-03-06T16:38:13.658Z,55.90
2018-03-06T16:40:42.277Z,59.50
2018-03-06T16:43:12.368Z,60.17
2018-03-06T16:45:40.506Z,54.33
2018-03-06T16:48:09.425Z,55.07
2018-03-06T16:50:37.561Z,67.00
2018-03-06T16:53:06.141Z,81.90
2018-03-06T16:55:34.742Z,80.57
2018-03-06T16:58:03.666Z,72.03
2018-03-06T17:00:31.792Z,66.00
2018-03-06T17:02:59.914Z,64.20
2018-03-06T17:05:28.077Z,58.00
2018-03-06T17:07:56.842Z,59.20
2018-03-06T17:10:25.753Z,56.90
2018-03-06T17:12:53.889Z,59.57
2018-03-06T17:15:23.962Z,56.30
2018-03-06T17:17:52.081Z,57.63
2018-03-06T17:20:20.248Z,61.20
2018-03-06T17:22:48.381Z,62.17
2018-03-06T17:25:16.524Z,63.20
2018-03-06T17:27:45.906Z,56.30
2018-03-06T17:30:14.049Z,57.60
2018-03-06T17:32:44.216Z,57.57
2018-03-06T17:35:13.129Z,60.00
2018-03-06T17:37:42.714Z,70.73
2018-03-06T17:40:11.654Z,61.37
2018-03-06T17:42:40.562Z,62.27
2018-03-06T17:45:10.239Z,60.27
2018-03-06T17:47:38.376Z,57.80
2018-03-06T17:50:07.281Z,56.80
2018-03-06T17:52:37.409Z,56.70
2018-03-06T17:55:05.549Z,60.70
2018-03-06T17:57:33.726Z,59.77
2018-03-06T18:00:02.401Z,57.53
2018-03-06T18:02:35.858Z,57.47
2018-03-06T18:05:04.014Z,59.77
2018-03-06T18:07:32.136Z,63.07
2018-03-06T18:10:00.292Z,57.57
2018-03-06T18:12:30.814Z,58.70
2018-03-06T18:14:58.956Z,63.67
2018-03-06T18:17:27.848Z,58.37
2018-03-06T18:19:56.903Z,56.67
2018-03-06T18:22:26.825Z,64.50
2018-03-06T18:24:54.977Z,61.60
2018-03-06T18:27:23.881Z,57.20
2018-03-06T18:29:52.050Z,56.83
2018-03-06T18:32:20.166Z,59.50
2018-03-06T18:34:49.079Z,55.93
2018-03-06T18:37:19.279Z,58.80
2018-03-06T18:39:49.253Z,58.30
2018-03-06T18:42:17.390Z,58.50
2018-03-06T18:44:46.923Z,57.67
2018-03-06T18:47:15.045Z,55.37
2018-03-06T18:50:05.669Z,58.47
2018-03-06T18:52:33.784Z,60.93
2018-03-06T18:55:01.929Z,56.53
2018-03-06T18:57:30.089Z,56.40
2018-03-06T19:03:10.818Z,57.47
2018-03-06T19:05:50.905Z,54.47
2018-03-06T19:08:19.813Z,57.97
2018-03-06T19:10:48.309Z,53.67
2018-03-06T19:13:16.420Z,51.93
2018-03-06T19:15:45.877Z,53.43
2018-03-06T19:18:15.432Z,55.37
2018-03-06T19:20:43.584Z,58.23
2018-03-06T19:23:11.725Z,53.10
2018-03-06T19:25:40.309Z,58.43
2018-03-06T19:28:08.454Z,55.20
2018-03-06T19:30:37.722Z,54.90
2018-03-06T19:33:05.845Z,57.50
2018-03-06T19:35:34.761Z,55.63
2018-03-06T19:38:02.922Z,53.30
2018-03-06T19:40:32.396Z,54.97
2018-03-06T19:43:01.841Z,57.07
2018-03-06T19:45:30.038Z,54.97
2018-03-06T19:47:58.163Z,56.00
2018-03-06T19:50:27.031Z,57.40
2018-03-06T19:52:55.153Z,57.87
2018-03-06T19:55:23.793Z,59.30
2018-03-06T19:57:51.954Z,57.33
2018-03-06T20:00:21.721Z,55.43
2018-03-06T20:02:49.859Z,56.10
2018-03-06T20:05:18.027Z,59.10
2018-03-06T20:07:46.307Z,53.43
2018-03-06T20:10:15.411Z,58.23
2018-03-06T20:12:44.326Z,59.20
2018-03-06T20:15:16.301Z,59.33
2018-03-06T20:17:44.424Z,57.97
2018-03-06T20:20:13.358Z,55.23
2018-03-06T20:22:42.312Z,54.67
2018-03-06T20:25:16.227Z,54.70
2018-03-06T20:27:45.148Z,55.73
2018-03-06T20:30:19.372Z,55.67
2018-03-06T20:32:53.332Z,56.20
2018-03-06T20:35:21.489Z,53.97
2018-03-06T20:37:49.658Z,56.57
2018-03-06T20:40:23.521Z,54.60
2018-03-06T20:42:51.640Z,53.83
2018-03-06T20:45:19.766Z,52.83
2018-03-06T20:47:47.921Z,57.77
2018-03-06T20:50:18.098Z,55.60
2018-03-06T20:52:52.000Z,56.53
2018-03-06T20:55:20.134Z,62.87
2018-03-06T20:57:49.046Z,57.00
2018-03-06T21:00:17.178Z,55.83
2018-03-06T21:02:45.337Z,55.30
2018-03-06T21:05:13.477Z,59.90
2018-03-06T21:07:41.617Z,54.10
2018-03-06T21:10:10.509Z,56.47
2018-03-06T21:12:39.411Z,53.10
2018-03-06T21:15:07.996Z,55.73
2018-03-06T21:17:36.904Z,55.30
2018-03-06T21:20:05.024Z,54.87
2018-03-06T21:22:34.372Z,53.23
2018-03-06T21:25:02.543Z,53.93
2018-03-06T21:27:30.684Z,56.70
2018-03-06T21:29:58.804Z,58.77
2018-03-06T21:32:26.966Z,51.87
2018-03-06T21:34:55.105Z,52.90
2018-03-06T21:37:23.241Z,56.27
2018-03-06T21:39:51.449Z,52.33
2018-03-06T21:42:19.998Z,53.47
2018-03-06T21:44:48.123Z,54.10
2018-03-06T21:47:17.033Z,55.87
2018-03-06T21:49:45.154Z,56.63
2018-03-06T21:52:13.356Z,58.23
2018-03-06T21:54:42.325Z,60.87
2018-03-06T21:57:10.969Z,52.77
2018-03-06T21:59:39.128Z,54.90
2018-03-06T22:02:07.277Z,54.57
2018-03-06T22:04:36.200Z,55.90
2018-03-06T22:07:04.360Z,52.93
2018-03-06T22:09:33.241Z,54.80
2018-03-06T22:12:02.149Z,58.50
2018-03-06T22:14:30.852Z,57.40
2018-03-06T22:16:59.000Z,57.53
2018-03-06T22:19:27.978Z,57.90
2018-03-06T22:21:56.920Z,58.73
2018-03-06T22:24:25.576Z,57.80
2018-03-06T22:26:53.725Z,57.93
2018-03-06T22:29:21.853Z,55.07
2018-03-06T22:31:50.501Z,55.00
2018-03-06T22:34:19.392Z,57.60
2018-03-06T22:36:48.295Z,56.90
2018-03-06T22:39:16.415Z,55.70
2018-03-06T22:41:44.565Z,55.13
2018-03-06T22:44:12.693Z,55.13
2018-03-06T22:46:41.597Z,54.57
2018-03-06T22:49:10.485Z,55.97
2018-03-06T22:51:41.555Z,58.50
2018-03-06T22:54:09.687Z,55.97
2018-03-06T22:56:38.608Z,55.33
2018-03-06T22:59:07.424Z,58.53
2018-03-06T23:01:36.388Z,57.17
2018-03-06T23:04:04.517Z,54.23
2018-03-06T23:06:32.677Z,58.07
2018-03-06T23:09:00.812Z,55.60
2018-03-06T23:11:28.967Z,53.93
2018-03-06T23:13:57.830Z,53.53
2018-03-06T23:16:25.941Z,54.77
2018-03-06T23:18:54.119Z,56.87
2018-03-06T23:21:22.271Z,57.13
2018-03-06T23:23:51.658Z,57.70
2018-03-06T23:26:19.766Z,53.80
2018-03-06T23:28:47.905Z,53.67
2018-03-06T23:31:16.005Z,54.10
2018-03-06T23:33:44.934Z,54.63
2018-03-06T23:36:14.159Z,52.73
2018-03-06T23:38:42.296Z,52.73
2018-03-06T23:41:10.399Z,53.57
2018-03-06T23:43:38.610Z,53.10
2018-03-06T23:46:07.494Z,55.30
2018-03-06T23:48:36.398Z,53.77
2018-03-06T23:51:05.273Z,55.50
2018-03-06T23:53:34.167Z,56.70
2018-03-06T23:56:02.749Z,57.90
2018-03-06T23:58:31.658Z,53.40
